sensor_id;sensor_type;location;lat;lon;timestamp;pressure;altitude;pressure_sealevel;temperature;humidity
49945;BME280;35838;49.134;9.212;2023-05-16T02:19:07;99625.56;;;12.91;100.00
49945;BME280;35838;49.134;9.212;2023-05-16T02:20:41;99628.22;;;12.88;100.00
49945;BME280;35838;49.134;9.212;2023-05-16T02:22:15;99628.13;;;12.92;100.00
49945;BME280;35838;49.134;9.212;2023-05-16T02:23:48;99633.25;;;12.97;100.00
49945;BME280;35838;49.134;9.212;2023-05-16T02:25:22;99624.72;;;12.89;100.00
49945;BME280;35838;49.134;9.212;2023-05-16T02:26:56;99635.06;;;12.92;100.00
49945;BME280;35838;49.134;9.212;2023-05-16T02:28:27;99635.81;;;12.98;100.00
49945;BME280;35838;49.134;9.212;2023-05-16T02:30:01;99637.53;;;12.99;100.00
49945;BME280;35838;49.134;9.212;2023-05-16T02:31:32;99634.13;;;12.96;100.00
49945;BME280;35838;49.134;9.212;2023-05-16T02:33:06;99641.91;;;12.99;100.00
49945;BME280;35838;49.134;9.212;2023-05-16T02:34:42;99642.72;;;13.01;100.00
49945;BME280;35838;49.134;9.212;2023-05-16T02:36:13;99641.81;;;13.02;100.00
49945;BME280;35838;49.134;9.212;2023-05-16T02:37:47;99637.44;;;13.04;100.00
49945;BME280;35838;49.134;9.212;2023-05-16T02:39:20;99639.94;;;13.10;100.00
49945;BME280;35838;49.134;9.212;2023-05-16T02:40:54;99641.66;;;13.11;100.00
49945;BME280;35838;49.134;9.212;2023-05-16T02:42:25;99636.34;;;13.16;100.00
49945;BME280;35838;49.134;9.212;2023-05-16T02:44:00;99641.56;;;13.18;100.00
49945;BME280;35838;49.134;9.212;2023-05-16T02:45:34;99640.66;;;13.19;100.00
49945;BME280;35838;49.134;9.212;2023-05-16T02:47:07;99636.34;;;13.18;100.00
49945;BME280;35838;49.134;9.212;2023-05-16T02:48:41;99641.72;;;13.08;100.00
49945;BME280;35838;49.134;9.212;2023-05-16T02:50:17;99642.66;;;13.04;100.00
49945;BME280;35838;49.134;9.212;2023-05-16T02:51:51;99642.53;;;13.10;100.00
49945;BME280;35838;49.134;9.212;2023-05-16T02:53:24;99642.63;;;13.06;100.00
49945;BME280;35838;49.134;9.212;2023-05-16T02:54:55;99643.47;;;13.08;100.00
49945;BME280;35838;49.134;9.212;2023-05-16T02:56:29;99645.28;;;13.04;100.00
49945;BME280;35838;49.134;9.212;2023-05-16T02:58:03;99649.59;;;13.05;100.00
49945;BME280;35838;49.134;9.212;2023-05-16T02:59:36;99645.22;;;13.07;100.00
49945;BME280;35838;49.134;9.212;2023-05-16T03:01:10;99646.06;;;13.08;100.00
49945;BME280;35838;49.134;9.212;2023-05-16T03:02:44;99650.34;;;13.10;100.00
49945;BME280;35838;49.134;9.212;2023-05-16T03:04:17;99649.47;;;13.13;100.00
49945;BME280;35838;49.134;9.212;2023-05-16T03:05:55;99650.44;;;13.07;100.00
49945;BME280;35838;49.134;9.212;2023-05-16T03:07:28;99651.31;;;13.06;100.00
49945;BME280;35838;49.134;9.212;2023-05-16T03:09:02;99650.34;;;13.10;100.00
49945;BME280;35838;49.134;9.212;2023-05-16T03:10:37;99652.06;;;13.11;100.00
49945;BME280;35838;49.134;9.212;2023-05-16T03:12:08;99656.38;;;13.14;100.00
49945;BME280;35838;49.134;9.212;2023-05-16T03:13:42;99654.59;;;13.16;100.00
49945;BME280;35838;49.134;9.212;2023-05-16T03:15:12;99656.41;;;13.12;100.00
49945;BME280;35838;49.134;9.212;2023-05-16T03:16:46;99654.59;;;13.16;100.00
49945;BME280;35838;49.134;9.212;2023-05-16T03:18:20;99661.56;;;13.14;100.00
49945;BME280;35838;49.134;9.212;2023-05-16T03:19:53;99647.75;;;13.12;100.00
49945;BME280;35838;49.134;9.212;2023-05-16T03:21:30;99647.66;;;13.15;100.00
49945;BME280;35838;49.134;9.212;2023-05-16T03:23:03;99646.81;;;13.14;100.00
49945;BME280;35838;49.134;9.212;2023-05-16T03:24:37;99646.94;;;13.08;100.00
49945;BME280;35838;49.134;9.212;2023-05-16T03:26:11;99657.41;;;13.05;100.00
49945;BME280;35838;49.134;9.212;2023-05-16T03:27:45;99655.69;;;13.04;100.00
49945;BME280;35838;49.134;9.212;2023-05-16T03:29:18;99652.25;;;13.02;100.00
49945;BME280;35838;49.134;9.212;2023-05-16T03:30:50;99656.66;;;12.98;100.00
49945;BME280;35838;49.134;9.212;2023-05-16T03:32:23;99655.72;;;13.01;100.00
49945;BME280;35838;49.134;9.212;2023-05-16T03:33:57;99661.75;;;13.05;100.00
49945;BME280;35838;49.134;9.212;2023-05-16T03:35:31;99657.69;;;12.90;100.00
49945;BME280;35838;49.134;9.212;2023-05-16T03:37:08;99660.38;;;12.83;100.00
49945;BME280;35838;49.134;9.212;2023-05-16T03:38:44;99657.69;;;12.90;100.00
49945;BME280;35838;49.134;9.212;2023-05-16T03:40:18;99663.03;;;12.82;100.00
49945;BME280;35838;49.134;9.212;2023-05-16T03:41:52;99667.38;;;12.80;100.00
49945;BME280;35838;49.134;9.212;2023-05-16T03:43:26;99668.31;;;12.77;100.00
49945;BME280;35838;49.134;9.212;2023-05-16T03:45:00;99666.66;;;12.73;100.00
49945;BME280;35838;49.134;9.212;2023-05-16T03:46:34;99668.31;;;12.77;100.00
49945;BME280;35838;49.134;9.212;2023-05-16T03:48:05;99660.47;;;12.80;100.00
49945;BME280;35838;49.134;9.212;2023-05-16T03:49:39;99656.88;;;12.86;100.00
49945;BME280;35838;49.134;9.212;2023-05-16T03:51:12;99663.81;;;12.85;100.00
49945;BME280;35838;49.134;9.212;2023-05-16T03:52:48;99664.63;;;12.89;100.00
49945;BME280;35838;49.134;9.212;2023-05-16T03:54:19;99672.44;;;12.89;100.00
49945;BME280;35838;49.134;9.212;2023-05-16T03:55:53;99680.28;;;12.88;100.00
49945;BME280;35838;49.134;9.212;2023-05-16T03:57:28;99672.34;;;12.95;100.00
49945;BME280;35838;49.134;9.212;2023-05-16T03:59:02;99675.88;;;12.91;100.00
49945;BME280;35838;49.134;9.212;2023-05-16T04:00:35;99677.63;;;12.92;100.00
49945;BME280;35838;49.134;9.212;2023-05-16T04:02:06;99674.31;;;12.81;100.00
49945;BME280;35838;49.134;9.212;2023-05-16T04:03:40;99675.97;;;12.87;100.00
49945;BME280;35838;49.134;9.212;2023-05-16T04:05:14;99665.56;;;12.87;100.00
49945;BME280;35838;49.134;9.212;2023-05-16T04:06:47;99674.13;;;12.92;100.00
49945;BME280;35838;49.134;9.212;2023-05-16T04:08:23;99662.69;;;13.00;100.00
49945;BME280;35838;49.134;9.212;2023-05-16T04:09:55;99675.00;;;12.92;100.00
49945;BME280;35838;49.134;9.212;2023-05-16T04:11:29;99670.56;;;12.99;100.00
49945;BME280;35838;49.134;9.212;2023-05-16T04:13:00;99673.22;;;12.96;100.00
49945;BME280;35838;49.134;9.212;2023-05-16T04:14:33;99674.97;;;12.94;100.00
49945;BME280;35838;49.134;9.212;2023-05-16T04:16:07;99668.06;;;12.91;100.00
49945;BME280;35838;49.134;9.212;2023-05-16T04:17:40;99673.41;;;12.85;100.00
49945;BME280;35838;49.134;9.212;2023-05-16T04:19:11;99667.50;;;12.74;100.00
49945;BME280;35838;49.134;9.212;2023-05-16T04:20:45;99668.28;;;12.79;100.00
49945;BME280;35838;49.134;9.212;2023-05-16T04:22:19;99671.72;;;12.82;100.00
49945;BME280;35838;49.134;9.212;2023-05-16T04:23:56;99672.47;;;12.88;100.00
49945;BME280;35838;49.134;9.212;2023-05-16T04:25:30;99670.06;;;12.75;100.00
49945;BME280;35838;49.134;9.212;2023-05-16T04:27:04;99665.50;;;12.88;100.00
49945;BME280;35838;49.134;9.212;2023-05-16T04:28:38;99668.00;;;12.96;100.00
49945;BME280;35838;49.134;9.212;2023-05-16T04:30:12;99673.16;;;12.99;100.00
49945;BME280;35838;49.134;9.212;2023-05-16T04:31:47;99665.09;;;13.13;100.00
49945;BME280;35838;49.134;9.212;2023-05-16T04:33:18;99671.91;;;13.20;100.00
49945;BME280;35838;49.134;9.212;2023-05-16T04:34:51;99673.63;;;13.21;100.00
49945;BME280;35838;49.134;9.212;2023-05-16T04:36:25;99672.63;;;13.27;100.00
49945;BME280;35838;49.134;9.212;2023-05-16T04:37:59;99676.91;;;13.31;100.00
49945;BME280;35838;49.134;9.212;2023-05-16T04:39:36;99667.31;;;13.33;100.00
49945;BME280;35838;49.134;9.212;2023-05-16T04:41:10;99673.34;;;13.37;100.00
49945;BME280;35838;49.134;9.212;2023-05-16T04:42:44;99669.78;;;13.41;100.00
49945;BME280;35838;49.134;9.212;2023-05-16T04:44:17;99667.09;;;13.45;100.00
49945;BME280;35838;49.134;9.212;2023-05-16T04:45:51;99671.47;;;13.45;100.00
49945;BME280;35838;49.134;9.212;2023-05-16T04:47:23;99669.66;;;13.48;100.00
49945;BME280;35838;49.134;9.212;2023-05-16T04:48:57;99672.22;;;13.52;100.00
49945;BME280;35838;49.134;9.212;2023-05-16T04:50:28;99675.75;;;13.47;100.00
49945;BME280;35838;49.134;9.212;2023-05-16T04:52:01;99668.78;;;13.50;100.00
49945;BME280;35838;49.134;9.212;2023-05-16T04:53:32;99672.22;;;13.50;100.00
49945;BME280;35838;49.134;9.212;2023-05-16T04:55:09;99672.44;;;13.39;100.00
49945;BME280;35838;49.134;9.212;2023-05-16T04:56:40;99673.16;;;13.47;100.00
49945;BME280;35838;49.134;9.212;2023-05-16T04:58:14;99679.16;;;13.53;100.00
49945;BME280;35838;49.134;9.212;2023-05-16T04:59:48;99679.16;;;13.53;100.00
49945;BME280;35838;49.134;9.212;2023-05-16T05:01:21;99684.22;;;13.59;100.00
49945;BME280;35838;49.134;9.212;2023-05-16T05:02:52;99675.53;;;13.60;100.00
49945;BME280;35838;49.134;9.212;2023-05-16T05:04:26;99673.81;;;13.59;100.00
49945;BME280;35838;49.134;9.212;2023-05-16T05:05:59;99676.28;;;13.65;100.00
49945;BME280;35838;49.134;9.212;2023-05-16T05:07:31;99673.72;;;13.63;100.00
49945;BME280;35838;49.134;9.212;2023-05-16T05:09:05;99682.31;;;13.67;100.00
49945;BME280;35838;49.134;9.212;2023-05-16T05:10:41;99678.06;;;13.63;100.00
49945;BME280;35838;49.134;9.212;2023-05-16T05:12:15;99690.16;;;13.67;100.00
49945;BME280;35838;49.134;9.212;2023-05-16T05:13:49;99694.50;;;13.67;100.00
49945;BME280;35838;49.134;9.212;2023-05-16T05:15:22;99698.59;;;13.80;100.00
49945;BME280;35838;49.134;9.212;2023-05-16T05:16:56;99696.91;;;13.77;100.00
49945;BME280;35838;49.134;9.212;2023-05-16T05:18:29;99696.91;;;13.77;100.00
49945;BME280;35838;49.134;9.212;2023-05-16T05:20:04;99704.84;;;13.71;100.00
49945;BME280;35838;49.134;9.212;2023-05-16T05:21:40;99704.91;;;13.67;100.00
49945;BME280;35838;49.134;9.212;2023-05-16T05:23:13;99691.78;;;13.73;100.00
49945;BME280;35838;49.134;9.212;2023-05-16T05:24:47;99700.44;;;13.75;100.00
49945;BME280;35838;49.134;9.212;2023-05-16T05:26:23;99697.84;;;13.73;100.00
49945;BME280;35838;49.134;9.212;2023-05-16T05:27:58;99703.00;;;13.76;100.00
49945;BME280;35838;49.134;9.212;2023-05-16T05:29:32;99697.84;;;13.73;100.00
49945;BME280;35838;49.134;9.212;2023-05-16T05:31:06;99695.13;;;13.78;100.00
49945;BME280;35838;49.134;9.212;2023-05-16T05:32:40;99698.63;;;13.77;100.00
49945;BME280;35838;49.134;9.212;2023-05-16T05:34:13;99702.13;;;13.77;100.00
49945;BME280;35838;49.134;9.212;2023-05-16T05:35:47;99708.28;;;13.73;100.00
49945;BME280;35838;49.134;9.212;2023-05-16T05:37:24;99702.22;;;13.73;100.00
49945;BME280;35838;49.134;9.212;2023-05-16T05:38:57;99711.72;;;13.75;100.00
49945;BME280;35838;49.134;9.212;2023-05-16T05:40:31;99701.34;;;13.72;100.00
49945;BME280;35838;49.134;9.212;2023-05-16T05:42:08;99707.44;;;13.71;100.00
49945;BME280;35838;49.134;9.212;2023-05-16T05:43:41;99710.00;;;13.74;100.00
49945;BME280;35838;49.134;9.212;2023-05-16T05:45:15;99719.59;;;13.74;100.00
49945;BME280;35838;49.134;9.212;2023-05-16T05:46:49;99712.59;;;13.74;100.00
49945;BME280;35838;49.134;9.212;2023-05-16T05:48:23;99708.22;;;13.76;100.00
49945;BME280;35838;49.134;9.212;2023-05-16T05:49:58;99709.94;;;13.77;100.00
49945;BME280;35838;49.134;9.212;2023-05-16T05:51:32;99700.34;;;13.78;100.00
49945;BME280;35838;49.134;9.212;2023-05-16T05:53:05;99706.69;;;13.66;100.00
49945;BME280;35838;49.134;9.212;2023-05-16T05:54:39;99701.50;;;13.65;100.00
49945;BME280;35838;49.134;9.212;2023-05-16T05:56:13;99711.94;;;13.63;100.00
49945;BME280;35838;49.134;9.212;2023-05-16T05:57:49;99712.84;;;13.62;100.00
49945;BME280;35838;49.134;9.212;2023-05-16T05:59:22;99715.53;;;13.59;100.00
49945;BME280;35838;49.134;9.212;2023-05-16T06:00:57;99717.22;;;13.61;100.00
49945;BME280;35838;49.134;9.212;2023-05-16T06:02:30;99718.97;;;13.61;100.00
49945;BME280;35838;49.134;9.212;2023-05-16T06:04:04;99723.31;;;13.60;100.00
49945;BME280;35838;49.134;9.212;2023-05-16T06:05:38;99713.72;;;13.62;100.00
49945;BME280;35838;49.134;9.212;2023-05-16T06:07:11;99721.44;;;13.67;100.00
49945;BME280;35838;49.134;9.212;2023-05-16T06:08:46;99720.56;;;13.68;100.00
49945;BME280;35838;49.134;9.212;2023-05-16T06:10:20;99719.69;;;13.68;100.00
49945;BME280;35838;49.134;9.212;2023-05-16T06:11:53;99717.88;;;13.73;100.00
49945;BME280;35838;49.134;9.212;2023-05-16T06:13:29;99714.56;;;13.65;100.00
49945;BME280;35838;49.134;9.212;2023-05-16T06:15:03;99722.63;;;13.51;100.00
49945;BME280;35838;49.134;9.212;2023-05-16T06:16:37;99723.56;;;13.48;100.00
49945;BME280;35838;49.134;9.212;2023-05-16T06:18:11;99720.16;;;13.43;100.00
49945;BME280;35838;49.134;9.212;2023-05-16T06:19:45;99730.66;;;13.40;100.00
49945;BME280;35838;49.134;9.212;2023-05-16T06:21:18;99726.31;;;13.37;100.00
49945;BME280;35838;49.134;9.212;2023-05-16T06:22:52;99723.94;;;13.25;100.00
49945;BME280;35838;49.134;9.212;2023-05-16T06:24:26;99725.78;;;13.18;100.00
49945;BME280;35838;49.134;9.212;2023-05-16T06:25:59;99738.75;;;13.23;100.00
49945;BME280;35838;49.134;9.212;2023-05-16T06:27:33;99739.66;;;13.19;100.00
49945;BME280;35838;49.134;9.212;2023-05-16T06:29:09;99738.78;;;13.20;100.00
49945;BME280;35838;49.134;9.212;2023-05-16T06:30:43;99747.50;;;13.19;100.00
49945;BME280;35838;49.134;9.212;2023-05-16T06:32:17;99746.69;;;13.16;100.00
49945;BME280;35838;49.134;9.212;2023-05-16T06:33:51;99754.41;;;13.21;100.00
49945;BME280;35838;49.134;9.212;2023-05-16T06:35:24;99757.13;;;13.13;100.00
49945;BME280;35838;49.134;9.212;2023-05-16T06:36:58;99751.81;;;13.20;100.00
49945;BME280;35838;49.134;9.212;2023-05-16T06:38:33;99763.03;;;13.23;100.00
49945;BME280;35838;49.134;9.212;2023-05-16T06:40:07;99760.31;;;13.31;100.00
49945;BME280;35838;49.134;9.212;2023-05-16T06:41:41;99760.50;;;13.20;100.00
49945;BME280;35838;49.134;9.212;2023-05-16T06:43:15;99761.31;;;13.24;100.00
49945;BME280;35838;49.134;9.212;2023-05-16T06:44:51;99764.00;;;13.19;100.00
49945;BME280;35838;49.134;9.212;2023-05-16T06:46:24;99764.81;;;13.23;100.00
49945;BME280;35838;49.134;9.212;2023-05-16T06:47:58;99766.59;;;13.19;100.00
49945;BME280;35838;49.134;9.212;2023-05-16T06:49:32;99765.88;;;13.09;100.00
49945;BME280;35838;49.134;9.212;2023-05-16T06:51:05;99769.38;;;13.10;100.00
49945;BME280;35838;49.134;9.212;2023-05-16T06:52:39;99774.53;;;13.11;100.00
49945;BME280;35838;49.134;9.212;2023-05-16T06:54:13;99766.97;;;12.96;100.00
49945;BME280;35838;49.134;9.212;2023-05-16T06:55:46;99780.03;;;12.93;100.00
49945;BME280;35838;49.134;9.212;2023-05-16T06:57:20;99781.16;;;12.78;100.00
49945;BME280;35838;49.134;9.212;2023-05-16T06:58:54;99784.78;;;12.66;100.00
49945;BME280;35838;49.134;9.212;2023-05-16T07:00:30;99788.25;;;12.66;100.00
49945;BME280;35838;49.134;9.212;2023-05-16T07:02:04;99784.88;;;12.60;100.00
49945;BME280;35838;49.134;9.212;2023-05-16T07:03:37;99791.94;;;12.51;100.00
49945;BME280;35838;49.134;9.212;2023-05-16T07:05:11;99800.53;;;12.57;100.00
49945;BME280;35838;49.134;9.212;2023-05-16T07:06:45;99797.19;;;12.48;100.00
49945;BME280;35838;49.134;9.212;2023-05-16T07:08:18;99805.84;;;12.50;100.00
49945;BME280;35838;49.134;9.212;2023-05-16T07:09:52;99810.19;;;12.50;100.00
49945;BME280;35838;49.134;9.212;2023-05-16T07:11:26;99811.84;;;12.56;100.00
49945;BME280;35838;49.134;9.212;2023-05-16T07:12:59;99814.41;;;12.59;100.00
49945;BME280;35838;49.134;9.212;2023-05-16T07:14:34;99821.19;;;12.69;100.00
49945;BME280;35838;49.134;9.212;2023-05-16T07:16:11;99815.28;;;12.58;100.00
49945;BME280;35838;49.134;9.212;2023-05-16T07:17:44;99818.00;;;12.50;100.00
49945;BME280;35838;49.134;9.212;2023-05-16T07:19:18;99822.44;;;12.40;100.00
49945;BME280;35838;49.134;9.212;2023-05-16T07:20:51;99825.03;;;12.43;100.00
49945;BME280;35838;49.134;9.212;2023-05-16T07:22:25;99826.88;;;12.35;100.00
49945;BME280;35838;49.134;9.212;2023-05-16T07:23:59;99825.94;;;12.41;100.00
49945;BME280;35838;49.134;9.212;2023-05-16T07:25:32;99831.88;;;12.50;100.00
49945;BME280;35838;49.134;9.212;2023-05-16T07:27:06;99831.00;;;12.50;100.00
49945;BME280;35838;49.134;9.212;2023-05-16T07:28:40;99840.47;;;12.57;100.00
49945;BME280;35838;49.134;9.212;2023-05-16T07:30:13;99838.66;;;12.64;100.00
49945;BME280;35838;49.134;9.212;2023-05-16T07:31:50;99837.75;;;12.66;100.00
49945;BME280;35838;49.134;9.212;2023-05-16T07:33:23;99840.41;;;12.62;100.00
49945;BME280;35838;49.134;9.212;2023-05-16T07:34:57;99842.06;;;12.66;100.00
49945;BME280;35838;49.134;9.212;2023-05-16T07:36:32;99840.28;;;12.71;100.00
49945;BME280;35838;49.134;9.212;2023-05-16T07:38:06;99843.72;;;12.72;100.00
49945;BME280;35838;49.134;9.212;2023-05-16T07:39:39;99847.16;;;12.75;100.00
49945;BME280;35838;49.134;9.212;2023-05-16T07:41:13;99848.09;;;12.69;100.00
49945;BME280;35838;49.134;9.212;2023-05-16T07:42:47;99847.16;;;12.77;100.00
49945;BME280;35838;49.134;9.212;2023-05-16T07:44:20;99858.38;;;12.80;100.00
49945;BME280;35838;49.134;9.212;2023-05-16T07:45:54;99851.41;;;12.81;100.00
49945;BME280;35838;49.134;9.212;2023-05-16T07:47:30;99851.31;;;12.87;100.00
49945;BME280;35838;49.134;9.212;2023-05-16T07:49:04;99859.00;;;12.98;100.00
49945;BME280;35838;49.134;9.212;2023-05-16T07:50:37;99859.81;;;13.01;100.00
49945;BME280;35838;49.134;9.212;2023-05-16T07:52:11;99860.59;;;13.07;100.00
49945;BME280;35838;49.134;9.212;2023-05-16T07:53:44;99855.50;;;12.99;100.00
49945;BME280;35838;49.134;9.212;2023-05-16T07:55:18;99860.63;;;13.05;100.00
49945;BME280;35838;49.134;9.212;2023-05-16T07:56:52;99856.25;;;13.07;100.00
49945;BME280;35838;49.134;9.212;2023-05-16T07:58:25;99856.19;;;13.12;100.00
49945;BME280;35838;49.134;9.212;2023-05-16T07:59:59;99852.91;;;12.99;100.00
49945;BME280;35838;49.134;9.212;2023-05-16T08:01:33;99847.88;;;12.87;100.00
49945;BME280;35838;49.134;9.212;2023-05-16T08:03:10;99847.06;;;12.83;100.00
49945;BME280;35838;49.134;9.212;2023-05-16T08:04:44;99844.56;;;12.74;100.00
49945;BME280;35838;49.134;9.212;2023-05-16T08:06:18;99851.56;;;12.70;100.00
49945;BME280;35838;49.134;9.212;2023-05-16T08:07:52;99846.34;;;12.73;100.00
49945;BME280;35838;49.134;9.212;2023-05-16T08:09:25;99859.22;;;12.82;100.00
49945;BME280;35838;49.134;9.212;2023-05-16T08:10:59;99847.00;;;12.88;100.00
49945;BME280;35838;49.134;9.212;2023-05-16T08:12:32;99847.91;;;12.83;100.00
49945;BME280;35838;49.134;9.212;2023-05-16T08:14:06;99853.03;;;12.88;100.00
49945;BME280;35838;49.134;9.212;2023-05-16T08:15:40;99852.94;;;12.96;100.00
49945;BME280;35838;49.134;9.212;2023-05-16T08:17:13;99860.66;;;13.02;100.00
49945;BME280;35838;49.134;9.212;2023-05-16T08:20:23;99857.00;;;13.15;100.00
49945;BME280;35838;49.134;9.212;2023-05-16T08:21:56;99853.66;;;13.07;100.00
49945;BME280;35838;49.134;9.212;2023-05-16T08:23:30;99853.03;;;12.90;100.00
49945;BME280;35838;49.134;9.212;2023-05-16T08:25:04;99850.38;;;12.93;100.00
49945;BME280;35838;49.134;9.212;2023-05-16T08:26:38;99855.50;;;12.99;100.00
49945;BME280;35838;49.134;9.212;2023-05-16T08:28:12;99868.41;;;13.07;100.00
49945;BME280;35838;49.134;9.212;2023-05-16T08:29:45;99858.94;;;13.01;100.00
49945;BME280;35838;49.134;9.212;2023-05-16T08:31:19;99864.00;;;13.12;100.00
49945;BME280;35838;49.134;9.212;2023-05-16T08:32:53;99857.16;;;13.03;100.00
49945;BME280;35838;49.134;9.212;2023-05-16T08:34:29;99855.44;;;13.02;100.00
49945;BME280;35838;49.134;9.212;2023-05-16T08:36:05;99863.31;;;12.99;100.00
49945;BME280;35838;49.134;9.212;2023-05-16T08:37:39;99857.28;;;12.97;100.00
49945;BME280;35838;49.134;9.212;2023-05-16T08:39:12;99863.31;;;12.99;100.00
49945;BME280;35838;49.134;9.212;2023-05-16T08:40:46;99865.84;;;13.05;100.00
49945;BME280;35838;49.134;9.212;2023-05-16T08:42:20;99857.09;;;13.08;100.00
49945;BME280;35838;49.134;9.212;2023-05-16T08:43:53;99861.34;;;13.15;100.00
49945;BME280;35838;49.134;9.212;2023-05-16T08:45:27;99857.94;;;13.10;100.00
49945;BME280;35838;49.134;9.212;2023-05-16T08:47:04;99862.19;;;13.17;100.00
49945;BME280;35838;49.134;9.212;2023-05-16T08:48:39;99867.28;;;13.25;100.00
49945;BME280;35838;49.134;9.212;2023-05-16T08:50:14;99864.75;;;13.20;100.00
49945;BME280;35838;49.134;9.212;2023-05-16T08:51:51;99862.22;;;13.15;100.00
49945;BME280;35838;49.134;9.212;2023-05-16T08:53:30;99863.84;;;13.23;100.00
49945;BME280;35838;49.134;9.212;2023-05-16T08:55:05;99867.28;;;13.25;100.00
49945;BME280;35838;49.134;9.212;2023-05-16T08:56:41;99861.25;;;13.20;100.00
49945;BME280;35838;49.134;9.212;2023-05-16T08:58:15;99864.59;;;13.28;100.00
49945;BME280;35838;49.134;9.212;2023-05-16T08:59:48;99861.34;;;13.16;100.00
49945;BME280;35838;49.134;9.212;2023-05-16T09:01:23;99866.34;;;13.29;100.00
49945;BME280;35838;49.134;9.212;2023-05-16T09:02:57;99868.78;;;13.38;100.00
49945;BME280;35838;49.134;9.212;2023-05-16T09:04:31;99868.63;;;13.51;100.00
49945;BME280;35838;49.134;9.212;2023-05-16T09:06:04;99871.09;;;13.58;100.00
49945;BME280;35838;49.134;9.212;2023-05-16T09:07:41;99868.41;;;13.63;100.00
49945;BME280;35838;49.134;9.212;2023-05-16T09:09:15;99876.03;;;13.75;100.00
49945;BME280;35838;49.134;9.212;2023-05-16T09:10:49;99878.59;;;13.78;100.00
49945;BME280;35838;49.134;9.212;2023-05-16T09:12:22;99879.41;;;13.81;100.00
49945;BME280;35838;49.134;9.212;2023-05-16T09:13:56;99870.66;;;13.85;100.00
49945;BME280;35838;49.134;9.212;2023-05-16T09:15:30;99877.47;;;13.92;100.00
49945;BME280;35838;49.134;9.212;2023-05-16T09:17:05;99875.75;;;13.92;100.00
49945;BME280;35838;49.134;9.212;2023-05-16T09:18:38;99879.41;;;13.81;100.00
49945;BME280;35838;49.134;9.212;2023-05-16T09:20:13;99874.09;;;13.87;100.00
49945;BME280;35838;49.134;9.212;2023-05-16T09:21:47;99876.00;;;13.77;100.00
49945;BME280;35838;49.134;9.212;2023-05-16T09:23:25;99867.44;;;13.70;100.00
49945;BME280;35838;49.134;9.212;2023-05-16T09:24:59;99872.38;;;13.84;100.00
49945;BME280;35838;49.134;9.212;2023-05-16T09:26:34;99875.03;;;13.83;100.00
49945;BME280;35838;49.134;9.212;2023-05-16T09:28:09;99867.38;;;13.73;100.00
49945;BME280;35838;49.134;9.212;2023-05-16T09:29:43;99874.28;;;13.76;100.00
49945;BME280;35838;49.134;9.212;2023-05-16T09:31:18;99868.41;;;13.63;100.00
49945;BME280;35838;49.134;9.212;2023-05-16T09:32:52;99868.31;;;13.69;100.00
49945;BME280;35838;49.134;9.212;2023-05-16T09:34:26;99868.50;;;13.58;100.00
49945;BME280;35838;49.134;9.212;2023-05-16T09:35:59;99856.25;;;13.62;100.00
49945;BME280;35838;49.134;9.212;2023-05-16T09:37:33;99866.69;;;13.62;100.00
49945;BME280;35838;49.134;9.212;2023-05-16T09:39:09;99869.22;;;13.68;100.00
49945;BME280;35838;49.134;9.212;2023-05-16T09:40:47;99874.22;;;13.79;100.00
49945;BME280;35838;49.134;9.212;2023-05-16T09:42:22;99861.38;;;13.68;100.00
49945;BME280;35838;49.134;9.212;2023-05-16T09:43:57;99860.59;;;13.65;100.00
49945;BME280;35838;49.134;9.212;2023-05-16T09:45:31;99858.97;;;13.56;100.00
49945;BME280;35838;49.134;9.212;2023-05-16T09:47:05;99858.13;;;13.55;100.00
49945;BME280;35838;49.134;9.212;2023-05-16T09:48:39;99853.69;;;13.60;100.00
49945;BME280;35838;49.134;9.212;2023-05-16T09:50:14;99857.97;;;13.63;100.00
49945;BME280;35838;49.134;9.212;2023-05-16T09:51:48;99857.97;;;13.63;100.00
49945;BME280;35838;49.134;9.212;2023-05-16T09:53:23;99851.28;;;13.50;100.00
49945;BME280;35838;49.134;9.212;2023-05-16T09:55:01;99847.06;;;13.41;100.00
49945;BME280;35838;49.134;9.212;2023-05-16T09:56:38;99853.16;;;13.38;100.00
49945;BME280;35838;49.134;9.212;2023-05-16T09:58:20;99860.97;;;13.41;100.00
49945;BME280;35838;49.134;9.212;2023-05-16T10:00:00;99854.03;;;13.40;100.00
49945;BME280;35838;49.134;9.212;2023-05-16T10:01:35;99850.75;;;13.26;100.00
49945;BME280;35838;49.134;9.212;2023-05-16T10:03:09;99855.13;;;13.24;100.00
49945;BME280;35838;49.134;9.212;2023-05-16T10:04:43;99851.72;;;13.19;100.00
49945;BME280;35838;49.134;9.212;2023-05-16T10:06:17;99858.50;;;13.29;100.00
49945;BME280;35838;49.134;9.212;2023-05-16T10:07:52;99853.25;;;13.32;100.00
49945;BME280;35838;49.134;9.212;2023-05-16T10:09:27;99853.44;;;13.20;100.00
49945;BME280;35838;49.134;9.212;2023-05-16T10:11:05;99850.75;;;13.26;100.00
49945;BME280;35838;49.134;9.212;2023-05-16T10:12:38;99858.44;;;13.35;100.00
49945;BME280;35838;49.134;9.212;2023-05-16T10:14:13;99858.47;;;13.32;100.00
49945;BME280;35838;49.134;9.212;2023-05-16T10:15:49;99857.56;;;13.35;100.00
49945;BME280;35838;49.134;9.212;2023-05-16T10:17:23;99859.72;;;13.08;100.00
49945;BME280;35838;49.134;9.212;2023-05-16T10:18:57;99859.91;;;12.95;100.00
49945;BME280;35838;49.134;9.212;2023-05-16T10:20:32;99863.22;;;13.05;100.00
49945;BME280;35838;49.134;9.212;2023-05-16T10:22:06;99863.97;;;13.13;100.00
49945;BME280;35838;49.134;9.212;2023-05-16T10:23:40;99863.88;;;13.21;100.00
49945;BME280;35838;49.134;9.212;2023-05-16T10:25:16;99864.66;;;13.26;100.00
49945;BME280;35838;49.134;9.212;2023-05-16T10:26:55;99856.22;;;13.09;100.00
49945;BME280;35838;49.134;9.212;2023-05-16T10:28:29;99859.69;;;13.11;100.00
49945;BME280;35838;49.134;9.212;2023-05-16T10:30:03;99849.47;;;12.97;100.00
49945;BME280;35838;49.134;9.212;2023-05-16T10:31:37;99864.16;;;13.01;100.00